• Join FlightAware (Why Join?)
  • Login
  • US Flag 
11:33AM EDT


 

Airport Tracker/Info


-or-


 

Live Flight TrackerFlight Track Log ✈ ASQ5025 ✈ 24-Apr-2013 ✈ KLGA - KBTV

Flight Track Log - Related Links

Times and Time Zones

All times are in EDT time to prevent confusion due to time zone crossing. See the ASQ5025 flight status page for this flight to view local times or setup timezone preferences in your user account.

Time Position Orientation Groundspeed Altitude Reporting Facility
EDT Latitude Longitude Course Direction KTS MPH feet Rate Location/Type
09:16AM 40.8000 -73.8833 30° Northeast 151 174 1,600  Level New York TRACON
09:17AM 40.8333 -73.9000 339° North 205 236 3,800 2,820 Climbing New York TRACON
09:18AM 40.9167 -73.9000 360° North 265 305 7,000 3,180 Climbing New York TRACON
09:21AM 41.0119 -73.6778 60° Northeast 301 346 15,000 2,640 Climbing Boston Center
09:22AM 41.1175 -73.5957 30° Northeast  Level FlightAware Approximate
09:22AM 41.0856 -73.6186 31° Northeast 320 368 16,400  Level Boston Center
09:23AM 41.1883 -73.5378 31° Northeast 360 414 17,900 1,500 Climbing Boston Center
09:24AM 41.2850 -73.4706 28° Northeast 405 466 19,500 2,160 Climbing Boston Center
09:25AM 41.3936 -73.4250 17° North 416 479 22,300 2,400 Climbing Boston Center
09:26AM 41.5061 -73.4214 North 400 460 24,400 1,800 Climbing Boston Center
09:27AM 41.6292 -73.4178 North 395 455 25,900 1,380 Climbing Boston Center
09:28AM 41.7500 -73.4139 North 408 470 27,200 1,260 Climbing Boston Center
09:29AM 41.8711 -73.4047 North 419 482 28,500 900 Climbing Boston Center
09:30AM 41.9919 -73.3983 North 425 489 29,000 240 Climbing Boston Center
09:31AM 42.1067 -73.3858 North 434 499 29,000  Level Boston Center
09:32AM 42.2256 -73.3792 North 439 505 29,000  Level Boston Center
09:33AM 42.3547 -73.3842 358° North 439 505 29,000  Level Boston Center
09:34AM 42.4778 -73.3747 North 439 505 29,000  Level Boston Center
09:35AM 42.6031 -73.3681 North 439 505 29,000  Level Boston Center
09:36AM 42.7258 -73.3614 North 439 505 29,000  Level Boston Center
09:37AM 42.8511 -73.3547 North 439 505 29,000  Level Boston Center
09:38AM 42.9742 -73.3481 North 439 505 29,000 -540 Level Boston Center
09:39AM 43.0992 -73.3331 North 439 505 28,000 -1,800 Descending Boston Center
09:40AM 43.2203 -73.3206 North 439 505 25,400 -2,040 Descending Boston Center
09:41AM 43.3369 -73.3050 North 439 505 24,000 -1,440 Descending Boston Center
09:42AM 43.4517 -73.2867 North 425 489 22,600 -2,100 Descending Boston Center
09:43AM 43.5747 -73.2711 North 425 489 19,800 -2,940 Descending Boston Center
09:44AM 43.6936 -73.2556 North 425 489 16,800 -2,940 Descending Boston Center
09:45AM 43.8064 -73.2428 North 425 489 14,000 -2,760 Descending Boston Center
09:46AM 43.9106 -73.2297 North 396 456 11,300 -2,100 Descending Boston Center
09:47AM 44.0022 -73.2425 354° North 340 391 9,800 -1,440 Descending Boston Center
09:48AM 44.0811 -73.2694 346° North 310 357 8,500 -1,500 Descending Boston Center
09:49AM 44.1581 -73.2936 347° North 287 330 6,900 -1,620 Descending Boston Center
09:50AM 44.2350 -73.3153 349° North 280 322 5,300 -1,440 Descending Boston Center
09:51AM 44.3078 -73.3308 351° North 280 322 4,100 -1,200 Descending Boston Center
09:52AM 44.3850 -73.3203 North 273 314 2,900 -1,080 Descending Boston Center
09:53AM 44.4581 -73.2981 12° North 273 314 2,000 -420 Descending Boston Center
09:54AM 44.5147 -73.2728 18° North 236 272 2,100 -240 Climbing Boston Center
09:55AM 44.5150 -73.2231 90° East 154 177 1,600 -600 Descending Boston Center
09:56AM 44.4881 -73.1792 131° Southeast 103 119 800 -600 Descending Boston Center
09:57AM 44.4717 -73.1500 128° Southeast 116 133 400 -240 Descending Boston Center
09:58AM 44.4675 -73.1528 205° Southwest 67 77 400  Level Boston Center
09:59AM 44.4531 -73.1350 139° Southeast 67 77 400  Level Boston Center